sensor_id;sensor_type;location;lat;lon;timestamp;P1;durP1;ratioP1;P2;durP2;ratioP2
6825;SDS011;3451;52.476;13.316;2022-11-15T00:01:09;45.13;;;27.50;;
6825;SDS011;3451;52.476;13.316;2022-11-15T00:03:36;41.80;;;25.93;;
6825;SDS011;3451;52.476;13.316;2022-11-15T00:06:03;48.23;;;27.77;;
6825;SDS011;3451;52.476;13.316;2022-11-15T00:08:30;42.53;;;27.00;;
6825;SDS011;3451;52.476;13.316;2022-11-15T00:10:57;44.73;;;27.43;;
6825;SDS011;3451;52.476;13.316;2022-11-15T00:13:23;46.87;;;27.07;;
6825;SDS011;3451;52.476;13.316;2022-11-15T00:15:50;45.13;;;28.03;;
6825;SDS011;3451;52.476;13.316;2022-11-15T00:18:16;42.90;;;27.30;;
6825;SDS011;3451;52.476;13.316;2022-11-15T00:20:43;44.57;;;27.97;;
6825;SDS011;3451;52.476;13.316;2022-11-15T00:23:09;43.30;;;27.53;;
6825;SDS011;3451;52.476;13.316;2022-11-15T00:25:36;46.20;;;28.73;;
6825;SDS011;3451;52.476;13.316;2022-11-15T00:28:02;50.47;;;28.53;;
6825;SDS011;3451;52.476;13.316;2022-11-15T00:30:28;43.83;;;27.90;;
6825;SDS011;3451;52.476;13.316;2022-11-15T00:32:54;44.40;;;28.10;;
6825;SDS011;3451;52.476;13.316;2022-11-15T00:35:21;48.17;;;27.77;;
6825;SDS011;3451;52.476;13.316;2022-11-15T00:37:48;43.17;;;27.73;;
6825;SDS011;3451;52.476;13.316;2022-11-15T00:40:14;44.57;;;27.77;;
6825;SDS011;3451;52.476;13.316;2022-11-15T00:42:41;44.40;;;27.27;;
6825;SDS011;3451;52.476;13.316;2022-11-15T00:45:07;45.47;;;28.10;;
6825;SDS011;3451;52.476;13.316;2022-11-15T00:47:34;43.33;;;27.97;;
6825;SDS011;3451;52.476;13.316;2022-11-15T00:50:00;46.03;;;27.87;;
6825;SDS011;3451;52.476;13.316;2022-11-15T00:52:26;45.77;;;27.33;;
6825;SDS011;3451;52.476;13.316;2022-11-15T00:54:52;43.70;;;27.73;;
6825;SDS011;3451;52.476;13.316;2022-11-15T00:57:19;46.10;;;27.07;;
6825;SDS011;3451;52.476;13.316;2022-11-15T00:59:45;43.93;;;27.90;;
6825;SDS011;3451;52.476;13.316;2022-11-15T01:02:11;43.43;;;27.03;;
6825;SDS011;3451;52.476;13.316;2022-11-15T01:04:37;42.50;;;27.70;;
6825;SDS011;3451;52.476;13.316;2022-11-15T01:07:04;47.60;;;27.73;;
6825;SDS011;3451;52.476;13.316;2022-11-15T01:09:30;43.80;;;27.60;;
6825;SDS011;3451;52.476;13.316;2022-11-15T01:11:56;43.80;;;27.73;;
6825;SDS011;3451;52.476;13.316;2022-11-15T01:14:22;46.50;;;28.30;;
6825;SDS011;3451;52.476;13.316;2022-11-15T01:16:50;43.03;;;27.37;;
6825;SDS011;3451;52.476;13.316;2022-11-15T01:19:17;44.47;;;27.37;;
6825;SDS011;3451;52.476;13.316;2022-11-15T01:21:43;45.90;;;28.10;;
6825;SDS011;3451;52.476;13.316;2022-11-15T01:24:11;43.00;;;27.90;;
6825;SDS011;3451;52.476;13.316;2022-11-15T01:26:38;46.57;;;29.07;;
6825;SDS011;3451;52.476;13.316;2022-11-15T01:29:04;44.50;;;28.13;;
6825;SDS011;3451;52.476;13.316;2022-11-15T01:31:30;45.33;;;28.50;;
6825;SDS011;3451;52.476;13.316;2022-11-15T01:33:57;48.57;;;29.17;;
6825;SDS011;3451;52.476;13.316;2022-11-15T01:36:23;44.10;;;27.03;;
6825;SDS011;3451;52.476;13.316;2022-11-15T01:38:58;44.03;;;27.63;;
6825;SDS011;3451;52.476;13.316;2022-11-15T01:41:29;47.80;;;27.90;;
6825;SDS011;3451;52.476;13.316;2022-11-15T01:43:56;48.57;;;29.03;;
6825;SDS011;3451;52.476;13.316;2022-11-15T01:48:53;46.60;;;28.47;;
6825;SDS011;3451;52.476;13.316;2022-11-15T01:51:21;46.40;;;27.93;;
6825;SDS011;3451;52.476;13.316;2022-11-15T01:53:49;48.00;;;29.33;;
6825;SDS011;3451;52.476;13.316;2022-11-15T01:56:17;47.57;;;28.17;;
6825;SDS011;3451;52.476;13.316;2022-11-15T01:58:45;45.17;;;29.07;;
6825;SDS011;3451;52.476;13.316;2022-11-15T02:01:12;48.23;;;28.80;;
6825;SDS011;3451;52.476;13.316;2022-11-15T02:03:49;46.07;;;28.93;;
6825;SDS011;3451;52.476;13.316;2022-11-15T02:06:18;50.77;;;29.57;;
6825;SDS011;3451;52.476;13.316;2022-11-15T02:08:44;49.63;;;29.57;;
6825;SDS011;3451;52.476;13.316;2022-11-15T02:11:10;46.47;;;28.80;;
6825;SDS011;3451;52.476;13.316;2022-11-15T02:13:37;46.40;;;28.03;;
6825;SDS011;3451;52.476;13.316;2022-11-15T02:16:16;48.47;;;28.70;;
6825;SDS011;3451;52.476;13.316;2022-11-15T02:18:51;47.10;;;28.17;;
6825;SDS011;3451;52.476;13.316;2022-11-15T02:21:24;46.77;;;29.57;;
6825;SDS011;3451;52.476;13.316;2022-11-15T02:26:57;47.67;;;29.00;;
6825;SDS011;3451;52.476;13.316;2022-11-15T02:29:25;47.50;;;29.10;;
6825;SDS011;3451;52.476;13.316;2022-11-15T02:34:32;47.43;;;28.63;;
6825;SDS011;3451;52.476;13.316;2022-11-15T02:37:03;48.03;;;28.87;;
6825;SDS011;3451;52.476;13.316;2022-11-15T02:39:35;51.57;;;30.57;;
6825;SDS011;3451;52.476;13.316;2022-11-15T02:42:04;49.10;;;29.90;;
6825;SDS011;3451;52.476;13.316;2022-11-15T02:44:53;46.83;;;29.07;;
6825;SDS011;3451;52.476;13.316;2022-11-15T02:47:22;49.10;;;28.87;;
6825;SDS011;3451;52.476;13.316;2022-11-15T02:49:51;47.20;;;28.40;;
6825;SDS011;3451;52.476;13.316;2022-11-15T02:52:20;48.80;;;29.77;;
6825;SDS011;3451;52.476;13.316;2022-11-15T02:54:52;48.03;;;28.90;;
6825;SDS011;3451;52.476;13.316;2022-11-15T02:57:19;48.83;;;28.93;;
6825;SDS011;3451;52.476;13.316;2022-11-15T02:59:59;47.47;;;29.43;;
6825;SDS011;3451;52.476;13.316;2022-11-15T03:02:36;47.70;;;28.80;;
6825;SDS011;3451;52.476;13.316;2022-11-15T03:05:15;45.93;;;28.27;;
6825;SDS011;3451;52.476;13.316;2022-11-15T03:07:54;44.60;;;28.43;;
6825;SDS011;3451;52.476;13.316;2022-11-15T03:16:02;47.80;;;28.87;;
6825;SDS011;3451;52.476;13.316;2022-11-15T03:18:33;45.70;;;28.37;;
6825;SDS011;3451;52.476;13.316;2022-11-15T03:21:00;45.17;;;27.70;;
6825;SDS011;3451;52.476;13.316;2022-11-15T03:23:28;46.07;;;28.23;;
6825;SDS011;3451;52.476;13.316;2022-11-15T03:25:56;42.53;;;26.40;;
6825;SDS011;3451;52.476;13.316;2022-11-15T03:28:25;44.67;;;27.27;;
6825;SDS011;3451;52.476;13.316;2022-11-15T03:30:54;45.50;;;27.37;;
6825;SDS011;3451;52.476;13.316;2022-11-15T03:33:21;46.13;;;27.77;;
6825;SDS011;3451;52.476;13.316;2022-11-15T03:35:48;44.20;;;27.23;;
6825;SDS011;3451;52.476;13.316;2022-11-15T03:38:16;45.43;;;26.87;;
6825;SDS011;3451;52.476;13.316;2022-11-15T03:41:18;44.77;;;26.97;;
6825;SDS011;3451;52.476;13.316;2022-11-15T03:46:16;41.90;;;26.20;;
6825;SDS011;3451;52.476;13.316;2022-11-15T03:48:58;44.13;;;27.17;;
6825;SDS011;3451;52.476;13.316;2022-11-15T03:51:25;42.77;;;26.60;;
6825;SDS011;3451;52.476;13.316;2022-11-15T03:53:52;42.30;;;26.60;;
6825;SDS011;3451;52.476;13.316;2022-11-15T03:56:18;43.77;;;28.07;;
6825;SDS011;3451;52.476;13.316;2022-11-15T03:58:44;48.67;;;28.00;;
6825;SDS011;3451;52.476;13.316;2022-11-15T04:01:10;44.63;;;27.17;;
6825;SDS011;3451;52.476;13.316;2022-11-15T04:03:37;42.40;;;26.83;;
6825;SDS011;3451;52.476;13.316;2022-11-15T04:06:03;45.63;;;28.43;;
6825;SDS011;3451;52.476;13.316;2022-11-15T04:08:29;42.77;;;27.00;;
6825;SDS011;3451;52.476;13.316;2022-11-15T04:10:56;46.40;;;26.83;;
6825;SDS011;3451;52.476;13.316;2022-11-15T04:13:22;46.13;;;27.30;;
6825;SDS011;3451;52.476;13.316;2022-11-15T04:15:49;44.00;;;26.47;;
6825;SDS011;3451;52.476;13.316;2022-11-15T04:18:15;44.53;;;27.53;;
6825;SDS011;3451;52.476;13.316;2022-11-15T04:20:42;45.30;;;26.53;;
6825;SDS011;3451;52.476;13.316;2022-11-15T04:23:26;49.00;;;28.47;;
6825;SDS011;3451;52.476;13.316;2022-11-15T04:26:14;44.10;;;27.23;;
6825;SDS011;3451;52.476;13.316;2022-11-15T04:28:42;43.20;;;26.80;;
6825;SDS011;3451;52.476;13.316;2022-11-15T04:31:27;42.50;;;26.53;;
6825;SDS011;3451;52.476;13.316;2022-11-15T04:33:53;46.03;;;27.60;;
6825;SDS011;3451;52.476;13.316;2022-11-15T04:36:20;45.40;;;27.40;;
6825;SDS011;3451;52.476;13.316;2022-11-15T04:39:05;44.27;;;27.83;;
6825;SDS011;3451;52.476;13.316;2022-11-15T04:41:31;44.43;;;27.67;;
6825;SDS011;3451;52.476;13.316;2022-11-15T04:43:57;43.33;;;26.10;;
6825;SDS011;3451;52.476;13.316;2022-11-15T04:46:24;43.93;;;27.60;;
6825;SDS011;3451;52.476;13.316;2022-11-15T04:48:51;46.07;;;28.03;;
6825;SDS011;3451;52.476;13.316;2022-11-15T04:51:24;42.00;;;27.07;;
6825;SDS011;3451;52.476;13.316;2022-11-15T04:53:51;46.87;;;28.63;;
6825;SDS011;3451;52.476;13.316;2022-11-15T04:56:17;43.30;;;27.30;;
6825;SDS011;3451;52.476;13.316;2022-11-15T04:58:43;41.20;;;26.30;;
6825;SDS011;3451;52.476;13.316;2022-11-15T05:01:10;44.53;;;26.50;;
6825;SDS011;3451;52.476;13.316;2022-11-15T05:03:37;46.13;;;27.40;;
6825;SDS011;3451;52.476;13.316;2022-11-15T05:06:22;45.40;;;26.77;;
6825;SDS011;3451;52.476;13.316;2022-11-15T05:08:48;43.23;;;26.90;;
6825;SDS011;3451;52.476;13.316;2022-11-15T05:11:14;43.47;;;26.50;;
6825;SDS011;3451;52.476;13.316;2022-11-15T05:13:41;45.27;;;26.23;;
6825;SDS011;3451;52.476;13.316;2022-11-15T05:16:07;42.23;;;26.97;;
6825;SDS011;3451;52.476;13.316;2022-11-15T05:18:33;41.00;;;26.13;;
6825;SDS011;3451;52.476;13.316;2022-11-15T05:21:03;40.97;;;25.77;;
6825;SDS011;3451;52.476;13.316;2022-11-15T05:23:29;44.53;;;26.60;;
6825;SDS011;3451;52.476;13.316;2022-11-15T05:26:03;41.87;;;26.70;;
6825;SDS011;3451;52.476;13.316;2022-11-15T05:28:34;45.00;;;25.77;;
6825;SDS011;3451;52.476;13.316;2022-11-15T05:31:01;42.63;;;25.60;;
6825;SDS011;3451;52.476;13.316;2022-11-15T05:33:28;43.90;;;26.77;;
6825;SDS011;3451;52.476;13.316;2022-11-15T05:35:56;48.83;;;26.33;;
6825;SDS011;3451;52.476;13.316;2022-11-15T05:38:24;42.40;;;26.00;;
6825;SDS011;3451;52.476;13.316;2022-11-15T05:40:51;43.70;;;26.60;;
6825;SDS011;3451;52.476;13.316;2022-11-15T05:43:17;43.27;;;26.03;;
6825;SDS011;3451;52.476;13.316;2022-11-15T05:45:43;42.73;;;27.17;;
6825;SDS011;3451;52.476;13.316;2022-11-15T05:48:10;41.77;;;26.00;;
6825;SDS011;3451;52.476;13.316;2022-11-15T05:50:36;41.93;;;26.53;;
6825;SDS011;3451;52.476;13.316;2022-11-15T05:53:03;41.40;;;25.60;;
6825;SDS011;3451;52.476;13.316;2022-11-15T05:55:30;43.37;;;25.87;;
6825;SDS011;3451;52.476;13.316;2022-11-15T05:57:57;41.67;;;25.23;;
6825;SDS011;3451;52.476;13.316;2022-11-15T06:00:23;43.57;;;26.30;;
6825;SDS011;3451;52.476;13.316;2022-11-15T06:02:50;41.13;;;24.83;;
6825;SDS011;3451;52.476;13.316;2022-11-15T06:05:16;42.53;;;26.07;;
6825;SDS011;3451;52.476;13.316;2022-11-15T06:07:42;41.20;;;25.37;;
6825;SDS011;3451;52.476;13.316;2022-11-15T06:10:10;45.20;;;26.27;;
6825;SDS011;3451;52.476;13.316;2022-11-15T06:12:36;39.60;;;24.73;;
6825;SDS011;3451;52.476;13.316;2022-11-15T06:15:03;41.57;;;24.73;;
6825;SDS011;3451;52.476;13.316;2022-11-15T06:17:29;41.77;;;25.37;;
6825;SDS011;3451;52.476;13.316;2022-11-15T06:19:55;41.93;;;25.37;;
6825;SDS011;3451;52.476;13.316;2022-11-15T06:22:21;40.73;;;24.90;;
6825;SDS011;3451;52.476;13.316;2022-11-15T06:24:48;41.77;;;25.87;;
6825;SDS011;3451;52.476;13.316;2022-11-15T06:27:14;44.00;;;26.03;;
6825;SDS011;3451;52.476;13.316;2022-11-15T06:29:41;44.57;;;26.87;;
6825;SDS011;3451;52.476;13.316;2022-11-15T06:32:07;48.07;;;27.23;;
6825;SDS011;3451;52.476;13.316;2022-11-15T06:34:33;45.90;;;27.77;;
6825;SDS011;3451;52.476;13.316;2022-11-15T06:37:02;44.77;;;27.93;;
6825;SDS011;3451;52.476;13.316;2022-11-15T06:39:28;45.97;;;27.00;;
6825;SDS011;3451;52.476;13.316;2022-11-15T06:41:54;42.10;;;26.13;;
6825;SDS011;3451;52.476;13.316;2022-11-15T06:44:21;43.10;;;26.53;;
6825;SDS011;3451;52.476;13.316;2022-11-15T06:46:47;75.30;;;32.67;;
6825;SDS011;3451;52.476;13.316;2022-11-15T06:49:13;56.53;;;31.13;;
6825;SDS011;3451;52.476;13.316;2022-11-15T06:51:40;59.43;;;30.27;;
6825;SDS011;3451;52.476;13.316;2022-11-15T06:54:06;50.57;;;27.73;;
6825;SDS011;3451;52.476;13.316;2022-11-15T06:56:33;50.53;;;28.13;;
6825;SDS011;3451;52.476;13.316;2022-11-15T06:58:59;42.07;;;26.33;;
6825;SDS011;3451;52.476;13.316;2022-11-15T07:01:26;43.40;;;26.53;;
6825;SDS011;3451;52.476;13.316;2022-11-15T07:03:52;44.77;;;27.50;;
6825;SDS011;3451;52.476;13.316;2022-11-15T07:06:18;44.80;;;26.33;;
6825;SDS011;3451;52.476;13.316;2022-11-15T07:08:45;45.30;;;26.27;;
6825;SDS011;3451;52.476;13.316;2022-11-15T07:11:11;45.90;;;26.17;;
6825;SDS011;3451;52.476;13.316;2022-11-15T07:13:38;42.17;;;25.80;;
6825;SDS011;3451;52.476;13.316;2022-11-15T07:16:05;42.17;;;25.90;;
6825;SDS011;3451;52.476;13.316;2022-11-15T07:18:33;45.03;;;26.33;;
6825;SDS011;3451;52.476;13.316;2022-11-15T07:21:00;43.13;;;26.50;;
6825;SDS011;3451;52.476;13.316;2022-11-15T07:23:27;45.83;;;26.80;;
6825;SDS011;3451;52.476;13.316;2022-11-15T07:25:55;43.60;;;26.13;;
6825;SDS011;3451;52.476;13.316;2022-11-15T07:28:22;43.17;;;25.57;;
6825;SDS011;3451;52.476;13.316;2022-11-15T07:30:48;50.53;;;26.27;;
6825;SDS011;3451;52.476;13.316;2022-11-15T07:33:15;45.17;;;26.53;;
6825;SDS011;3451;52.476;13.316;2022-11-15T07:35:41;44.63;;;26.43;;
6825;SDS011;3451;52.476;13.316;2022-11-15T07:38:08;51.47;;;26.63;;
6825;SDS011;3451;52.476;13.316;2022-11-15T07:40:34;44.53;;;26.33;;
6825;SDS011;3451;52.476;13.316;2022-11-15T07:43:01;44.70;;;26.50;;
6825;SDS011;3451;52.476;13.316;2022-11-15T07:45:27;45.67;;;27.10;;
6825;SDS011;3451;52.476;13.316;2022-11-15T07:47:54;43.53;;;25.93;;
6825;SDS011;3451;52.476;13.316;2022-11-15T07:50:22;48.10;;;27.30;;
6825;SDS011;3451;52.476;13.316;2022-11-15T07:52:58;43.73;;;26.37;;
6825;SDS011;3451;52.476;13.316;2022-11-15T07:55:25;47.57;;;27.10;;
6825;SDS011;3451;52.476;13.316;2022-11-15T07:57:53;48.80;;;27.90;;
6825;SDS011;3451;52.476;13.316;2022-11-15T08:00:19;43.10;;;27.13;;
6825;SDS011;3451;52.476;13.316;2022-11-15T08:02:45;49.63;;;26.07;;
6825;SDS011;3451;52.476;13.316;2022-11-15T08:05:12;50.10;;;26.17;;
6825;SDS011;3451;52.476;13.316;2022-11-15T08:07:38;44.43;;;25.97;;
6825;SDS011;3451;52.476;13.316;2022-11-15T08:10:06;45.50;;;26.03;;
6825;SDS011;3451;52.476;13.316;2022-11-15T08:12:33;41.50;;;25.33;;
6825;SDS011;3451;52.476;13.316;2022-11-15T08:15:00;46.60;;;25.10;;
6825;SDS011;3451;52.476;13.316;2022-11-15T08:17:27;40.30;;;24.73;;
6825;SDS011;3451;52.476;13.316;2022-11-15T08:19:53;44.83;;;24.37;;
6825;SDS011;3451;52.476;13.316;2022-11-15T08:22:20;38.67;;;23.47;;
6825;SDS011;3451;52.476;13.316;2022-11-15T08:24:46;37.63;;;23.47;;
6825;SDS011;3451;52.476;13.316;2022-11-15T08:27:12;37.97;;;23.00;;
6825;SDS011;3451;52.476;13.316;2022-11-15T08:29:42;38.13;;;23.57;;
6825;SDS011;3451;52.476;13.316;2022-11-15T08:32:09;38.40;;;23.80;;
6825;SDS011;3451;52.476;13.316;2022-11-15T08:34:35;37.63;;;24.23;;
6825;SDS011;3451;52.476;13.316;2022-11-15T08:37:01;36.30;;;22.43;;
6825;SDS011;3451;52.476;13.316;2022-11-15T08:39:28;36.53;;;23.17;;
6825;SDS011;3451;52.476;13.316;2022-11-15T08:41:54;38.73;;;22.87;;
6825;SDS011;3451;52.476;13.316;2022-11-15T08:44:20;33.40;;;21.50;;
6825;SDS011;3451;52.476;13.316;2022-11-15T08:46:46;33.87;;;21.97;;
6825;SDS011;3451;52.476;13.316;2022-11-15T08:49:13;32.57;;;21.90;;
6825;SDS011;3451;52.476;13.316;2022-11-15T08:51:39;31.93;;;21.43;;
6825;SDS011;3451;52.476;13.316;2022-11-15T08:54:05;33.53;;;21.63;;
6825;SDS011;3451;52.476;13.316;2022-11-15T08:56:32;33.47;;;21.13;;
6825;SDS011;3451;52.476;13.316;2022-11-15T08:58:58;34.97;;;20.17;;
6825;SDS011;3451;52.476;13.316;2022-11-15T09:01:24;33.70;;;20.67;;
6825;SDS011;3451;52.476;13.316;2022-11-15T09:03:50;30.27;;;19.97;;
6825;SDS011;3451;52.476;13.316;2022-11-15T09:06:17;31.00;;;19.93;;
6825;SDS011;3451;52.476;13.316;2022-11-15T09:08:43;27.97;;;18.33;;
6825;SDS011;3451;52.476;13.316;2022-11-15T09:11:13;27.60;;;19.00;;
6825;SDS011;3451;52.476;13.316;2022-11-15T09:13:40;28.33;;;18.53;;
6825;SDS011;3451;52.476;13.316;2022-11-15T09:16:07;27.47;;;19.40;;
6825;SDS011;3451;52.476;13.316;2022-11-15T09:18:34;28.67;;;18.87;;
6825;SDS011;3451;52.476;13.316;2022-11-15T09:21:00;27.17;;;18.77;;
6825;SDS011;3451;52.476;13.316;2022-11-15T09:23:28;28.13;;;18.33;;
6825;SDS011;3451;52.476;13.316;2022-11-15T09:25:58;27.30;;;18.03;;
6825;SDS011;3451;52.476;13.316;2022-11-15T09:28:25;25.13;;;17.10;;
6825;SDS011;3451;52.476;13.316;2022-11-15T09:30:51;25.37;;;16.47;;
6825;SDS011;3451;52.476;13.316;2022-11-15T09:33:17;25.70;;;17.13;;
6825;SDS011;3451;52.476;13.316;2022-11-15T09:35:44;24.77;;;16.47;;
6825;SDS011;3451;52.476;13.316;2022-11-15T09:38:10;22.60;;;15.50;;
6825;SDS011;3451;52.476;13.316;2022-11-15T09:40:36;25.27;;;16.23;;
6825;SDS011;3451;52.476;13.316;2022-11-15T09:45:54;26.23;;;15.87;;
6825;SDS011;3451;52.476;13.316;2022-11-15T09:50:55;26.00;;;15.90;;
6825;SDS011;3451;52.476;13.316;2022-11-15T09:53:39;23.60;;;15.43;;
6825;SDS011;3451;52.476;13.316;2022-11-15T09:56:28;21.60;;;14.93;;
6825;SDS011;3451;52.476;13.316;2022-11-15T10:01:34;21.60;;;15.67;;
6825;SDS011;3451;52.476;13.316;2022-11-15T10:04:02;20.70;;;14.50;;
6825;SDS011;3451;52.476;13.316;2022-11-15T10:06:36;20.40;;;14.60;;
6825;SDS011;3451;52.476;13.316;2022-11-15T10:11:37;23.77;;;15.70;;
6825;SDS011;3451;52.476;13.316;2022-11-15T10:14:15;23.07;;;15.47;;
6825;SDS011;3451;52.476;13.316;2022-11-15T10:16:48;22.43;;;15.63;;
6825;SDS011;3451;52.476;13.316;2022-11-15T10:19:28;25.33;;;16.20;;
6825;SDS011;3451;52.476;13.316;2022-11-15T10:22:00;23.70;;;15.70;;
6825;SDS011;3451;52.476;13.316;2022-11-15T10:24:37;21.23;;;14.77;;
6825;SDS011;3451;52.476;13.316;2022-11-15T10:27:23;21.07;;;14.00;;
6825;SDS011;3451;52.476;13.316;2022-11-15T10:29:50;20.73;;;14.27;;
6825;SDS011;3451;52.476;13.316;2022-11-15T10:32:18;20.00;;;14.10;;
6825;SDS011;3451;52.476;13.316;2022-11-15T10:34:44;22.33;;;15.17;;
6825;SDS011;3451;52.476;13.316;2022-11-15T10:37:11;22.87;;;14.50;;
6825;SDS011;3451;52.476;13.316;2022-11-15T10:39:37;20.07;;;15.20;;
6825;SDS011;3451;52.476;13.316;2022-11-15T10:44:48;22.20;;;14.73;;
6825;SDS011;3451;52.476;13.316;2022-11-15T10:47:26;21.20;;;14.63;;
6825;SDS011;3451;52.476;13.316;2022-11-15T10:49:53;19.97;;;14.70;;
6825;SDS011;3451;52.476;13.316;2022-11-15T10:52:20;19.10;;;13.67;;
6825;SDS011;3451;52.476;13.316;2022-11-15T10:54:51;22.03;;;14.00;;
6825;SDS011;3451;52.476;13.316;2022-11-15T10:57:20;21.97;;;15.27;;
6825;SDS011;3451;52.476;13.316;2022-11-15T10:59:54;22.43;;;14.43;;
6825;SDS011;3451;52.476;13.316;2022-11-15T11:02:31;24.13;;;14.77;;
6825;SDS011;3451;52.476;13.316;2022-11-15T11:04:58;20.07;;;14.73;;
6825;SDS011;3451;52.476;13.316;2022-11-15T11:07:26;25.23;;;15.10;;
6825;SDS011;3451;52.476;13.316;2022-11-15T11:10:01;19.30;;;13.93;;
6825;SDS011;3451;52.476;13.316;2022-11-15T11:12:48;22.83;;;14.70;;
6825;SDS011;3451;52.476;13.316;2022-11-15T11:15:14;21.17;;;14.83;;
6825;SDS011;3451;52.476;13.316;2022-11-15T11:20:14;20.47;;;14.80;;
6825;SDS011;3451;52.476;13.316;2022-11-15T11:22:50;23.97;;;14.97;;
6825;SDS011;3451;52.476;13.316;2022-11-15T11:25:26;19.73;;;14.00;;
6825;SDS011;3451;52.476;13.316;2022-11-15T11:27:59;22.33;;;14.27;;
6825;SDS011;3451;52.476;13.316;2022-11-15T11:30:36;21.53;;;13.93;;
6825;SDS011;3451;52.476;13.316;2022-11-15T11:33:16;21.20;;;14.13;;
6825;SDS011;3451;52.476;13.316;2022-11-15T11:35:46;21.77;;;13.87;;
6825;SDS011;3451;52.476;13.316;2022-11-15T11:40:59;20.83;;;13.87;;
6825;SDS011;3451;52.476;13.316;2022-11-15T11:43:36;20.30;;;14.43;;
6825;SDS011;3451;52.476;13.316;2022-11-15T11:48:57;23.20;;;14.50;;
6825;SDS011;3451;52.476;13.316;2022-11-15T11:51:28;19.73;;;14.00;;
6825;SDS011;3451;52.476;13.316;2022-11-15T11:53:58;19.50;;;14.17;;
6825;SDS011;3451;52.476;13.316;2022-11-15T11:56:29;20.17;;;13.73;;
6825;SDS011;3451;52.476;13.316;2022-11-15T11:59:00;20.97;;;14.70;;
6825;SDS011;3451;52.476;13.316;2022-11-15T12:01:44;19.17;;;13.60;;
6825;SDS011;3451;52.476;13.316;2022-11-15T12:04:16;19.43;;;14.07;;
6825;SDS011;3451;52.476;13.316;2022-11-15T12:06:49;19.53;;;14.00;;
6825;SDS011;3451;52.476;13.316;2022-11-15T12:09:24;19.50;;;13.80;;
6825;SDS011;3451;52.476;13.316;2022-11-15T12:11:58;23.03;;;14.07;;
6825;SDS011;3451;52.476;13.316;2022-11-15T12:14:35;19.87;;;13.97;;
6825;SDS011;3451;52.476;13.316;2022-11-15T12:17:02;22.90;;;14.30;;
6825;SDS011;3451;52.476;13.316;2022-11-15T12:19:29;17.60;;;13.10;;
6825;SDS011;3451;52.476;13.316;2022-11-15T12:24:29;18.00;;;12.63;;
6825;SDS011;3451;52.476;13.316;2022-11-15T12:27:00;18.67;;;13.10;;
6825;SDS011;3451;52.476;13.316;2022-11-15T12:29:31;22.77;;;12.20;;
6825;SDS011;3451;52.476;13.316;2022-11-15T12:31:59;18.93;;;12.00;;
6825;SDS011;3451;52.476;13.316;2022-11-15T12:36:53;19.33;;;12.10;;
6825;SDS011;3451;52.476;13.316;2022-11-15T12:39:19;17.03;;;12.03;;
6825;SDS011;3451;52.476;13.316;2022-11-15T13:02:17;17.10;;;10.83;;
6825;SDS011;3451;52.476;13.316;2022-11-15T13:04:44;19.10;;;12.13;;
6825;SDS011;3451;52.476;13.316;2022-11-15T13:07:54;19.90;;;11.97;;
6825;SDS011;3451;52.476;13.316;2022-11-15T13:09:56;18.43;;;11.60;;
6825;SDS011;3451;52.476;13.316;2022-11-15T13:14:52;22.03;;;12.00;;
6825;SDS011;3451;52.476;13.316;2022-11-15T13:19:46;19.73;;;11.87;;
6825;SDS011;3451;52.476;13.316;2022-11-15T13:22:13;19.00;;;12.10;;
6825;SDS011;3451;52.476;13.316;2022-11-15T13:24:58;19.83;;;12.60;;
6825;SDS011;3451;52.476;13.316;2022-11-15T13:27:25;21.33;;;12.73;;
6825;SDS011;3451;52.476;13.316;2022-11-15T13:29:52;17.33;;;12.17;;
6825;SDS011;3451;52.476;13.316;2022-11-15T13:32:18;15.97;;;12.23;;
6825;SDS011;3451;52.476;13.316;2022-11-15T13:34:46;19.77;;;11.93;;
6825;SDS011;3451;52.476;13.316;2022-11-15T13:39:48;19.13;;;12.83;;
6825;SDS011;3451;52.476;13.316;2022-11-15T13:42:15;18.40;;;11.67;;
6825;SDS011;3451;52.476;13.316;2022-11-15T13:44:54;17.13;;;11.40;;
6825;SDS011;3451;52.476;13.316;2022-11-15T13:47:21;14.73;;;11.00;;
6825;SDS011;3451;52.476;13.316;2022-11-15T13:49:47;14.50;;;10.70;;
6825;SDS011;3451;52.476;13.316;2022-11-15T13:52:14;17.67;;;12.53;;
6825;SDS011;3451;52.476;13.316;2022-11-15T13:54:56;19.33;;;12.87;;
6825;SDS011;3451;52.476;13.316;2022-11-15T13:57:24;18.93;;;12.70;;
6825;SDS011;3451;52.476;13.316;2022-11-15T13:59:52;20.73;;;12.87;;
6825;SDS011;3451;52.476;13.316;2022-11-15T14:02:21;20.07;;;12.27;;
6825;SDS011;3451;52.476;13.316;2022-11-15T14:04:55;20.37;;;12.33;;
6825;SDS011;3451;52.476;13.316;2022-11-15T14:07:22;19.57;;;12.10;;
6825;SDS011;3451;52.476;13.316;2022-11-15T14:09:49;18.37;;;12.10;;
6825;SDS011;3451;52.476;13.316;2022-11-15T14:12:26;18.43;;;12.03;;
6825;SDS011;3451;52.476;13.316;2022-11-15T14:14:53;18.70;;;11.70;;
6825;SDS011;3451;52.476;13.316;2022-11-15T14:17:20;17.83;;;11.40;;
6825;SDS011;3451;52.476;13.316;2022-11-15T14:19:47;23.93;;;12.40;;
6825;SDS011;3451;52.476;13.316;2022-11-15T14:22:15;17.53;;;12.37;;
6825;SDS011;3451;52.476;13.316;2022-11-15T14:24:45;22.07;;;14.07;;
6825;SDS011;3451;52.476;13.316;2022-11-15T14:27:19;22.07;;;14.73;;
6825;SDS011;3451;52.476;13.316;2022-11-15T14:29:46;23.13;;;15.27;;
6825;SDS011;3451;52.476;13.316;2022-11-15T14:32:14;21.80;;;14.97;;
6825;SDS011;3451;52.476;13.316;2022-11-15T14:34:56;21.43;;;15.10;;
6825;SDS011;3451;52.476;13.316;2022-11-15T14:37:25;27.37;;;16.00;;
6825;SDS011;3451;52.476;13.316;2022-11-15T14:39:51;22.73;;;15.40;;
6825;SDS011;3451;52.476;13.316;2022-11-15T14:42:18;21.57;;;13.80;;
6825;SDS011;3451;52.476;13.316;2022-11-15T14:44:45;21.80;;;14.20;;
6825;SDS011;3451;52.476;13.316;2022-11-15T14:47:13;23.90;;;14.20;;
6825;SDS011;3451;52.476;13.316;2022-11-15T14:49:39;24.63;;;13.83;;
6825;SDS011;3451;52.476;13.316;2022-11-15T14:52:17;21.73;;;14.40;;
6825;SDS011;3451;52.476;13.316;2022-11-15T14:54:46;24.00;;;14.83;;
6825;SDS011;3451;52.476;13.316;2022-11-15T14:57:13;27.67;;;14.23;;
6825;SDS011;3451;52.476;13.316;2022-11-15T14:59:40;21.10;;;14.77;;
6825;SDS011;3451;52.476;13.316;2022-11-15T15:02:13;27.13;;;15.30;;
6825;SDS011;3451;52.476;13.316;2022-11-15T15:04:41;21.93;;;14.43;;
6825;SDS011;3451;52.476;13.316;2022-11-15T15:07:07;24.30;;;15.07;;
6825;SDS011;3451;52.476;13.316;2022-11-15T15:09:34;21.20;;;14.20;;
6825;SDS011;3451;52.476;13.316;2022-11-15T15:12:00;22.53;;;14.60;;
6825;SDS011;3451;52.476;13.316;2022-11-15T15:14:31;22.60;;;14.77;;
6825;SDS011;3451;52.476;13.316;2022-11-15T15:16:57;24.93;;;14.57;;
6825;SDS011;3451;52.476;13.316;2022-11-15T15:19:25;21.03;;;14.80;;
6825;SDS011;3451;52.476;13.316;2022-11-15T15:21:51;24.90;;;14.07;;
6825;SDS011;3451;52.476;13.316;2022-11-15T15:24:17;25.00;;;14.33;;
6825;SDS011;3451;52.476;13.316;2022-11-15T15:26:44;23.50;;;13.57;;
6825;SDS011;3451;52.476;13.316;2022-11-15T15:29:10;19.03;;;14.13;;
6825;SDS011;3451;52.476;13.316;2022-11-15T15:31:36;24.20;;;15.10;;
6825;SDS011;3451;52.476;13.316;2022-11-15T15:34:02;22.37;;;14.87;;
6825;SDS011;3451;52.476;13.316;2022-11-15T15:36:29;25.57;;;15.10;;
6825;SDS011;3451;52.476;13.316;2022-11-15T15:38:55;22.60;;;15.50;;
6825;SDS011;3451;52.476;13.316;2022-11-15T15:41:22;22.67;;;14.73;;
6825;SDS011;3451;52.476;13.316;2022-11-15T15:43:49;23.70;;;15.90;;
6825;SDS011;3451;52.476;13.316;2022-11-15T15:46:16;24.17;;;15.00;;
6825;SDS011;3451;52.476;13.316;2022-11-15T15:48:43;21.27;;;14.67;;
6825;SDS011;3451;52.476;13.316;2022-11-15T15:51:10;21.07;;;15.13;;
6825;SDS011;3451;52.476;13.316;2022-11-15T15:53:44;27.23;;;15.13;;